Time;durP1;ratioP1;P1;durP2;ratioP2;P2;SDS_P1;SDS_P2;PMS_P1;PMS_P2;Temp;Humidity;BMP_temperature;BMP_pressure;BME280_temperature;BME280_humidity;BME280_pressure;Samples;Min_cycle;Max_cycle;Signal;HPM_P1;HPM_P2
2021/07/06 00:00:15;;;;;;;;;;;9.40;99.90;;;;;;5072743;28;19908;-67
2021/07/06 00:02:42;;;;;;;;;;;9.40;99.90;;;;;;5072394;28;19908;-67
2021/07/06 00:05:09;;;;;;;;;;;9.40;99.90;;;;;;5072470;28;19988;-66
2021/07/06 00:07:36;;;;;;;;;;;9.40;99.90;;;;;;5072222;28;19917;-67
2021/07/06 00:10:04;;;;;;;;;;;9.40;99.90;;;;;;5072070;28;19908;-66
2021/07/06 00:12:31;;;;;;;;;;;9.50;99.90;;;;;;5072278;28;19915;-67
2021/07/06 00:14:58;;;;;;;;;;;9.50;99.90;;;;;;5072194;28;19921;-66
2021/07/06 00:17:25;;;;;;;;;;;9.60;99.90;;;;;;5072444;28;19915;-66
2021/07/06 00:19:51;;;;;;;;;;;9.70;99.90;;;;;;5072248;28;19909;-66
2021/07/06 00:22:18;;;;;;;;;;;9.80;99.90;;;;;;5072342;28;19917;-67
2021/07/06 00:24:47;;;;;;;;;;;9.90;99.90;;;;;;5072265;28;19924;-67
2021/07/06 00:27:13;;;;;;;;;;;9.90;99.90;;;;;;5072177;28;19923;-66
2021/07/06 00:29:40;;;;;;;;;;;10.00;99.90;;;;;;5072117;28;19915;-66
2021/07/06 00:32:07;;;;;;;;;;;10.10;99.90;;;;;;5072246;28;20307;-67
2021/07/06 00:34:34;;;;;;;;;;;10.20;99.90;;;;;;5072050;28;20370;-66
2021/07/06 00:37:01;;;;;;;;;;;10.20;99.90;;;;;;5072352;28;19962;-66
2021/07/06 00:39:27;;;;;;;;;;;10.20;99.90;;;;;;5071743;28;19909;-67
2021/07/06 00:41:54;;;;;;;;;;;10.20;99.90;;;;;;5072025;28;19908;-67
2021/07/06 00:44:21;;;;;;;;;;;10.30;99.90;;;;;;5074586;28;20252;-67
2021/07/06 00:46:48;;;;;;;;;;;10.30;99.90;;;;;;5076147;28;20402;-65
2021/07/06 00:49:15;;;;;;;;;;;10.40;99.90;;;;;;5076384;28;19909;-65
2021/07/06 00:51:42;;;;;;;;;;;10.50;99.90;;;;;;5076152;28;19923;-66
2021/07/06 00:54:10;;;;;;;;;;;10.60;99.90;;;;;;5075880;28;20045;-66
2021/07/06 00:56:38;;;;;;;;;;;10.50;99.90;;;;;;5076136;28;19913;-65
2021/07/06 00:59:04;;;;;;;;;;;10.60;99.90;;;;;;5075889;28;19915;-65
2021/07/06 01:01:31;;;;;;;;;;;10.70;99.90;;;;;;5075874;28;19944;-67
2021/07/06 01:03:58;;;;;;;;;;;10.80;99.90;;;;;;5075851;28;19987;-66
2021/07/06 01:06:25;;;;;;;;;;;10.90;99.90;;;;;;5075637;28;20001;-65
2021/07/06 01:08:53;;;;;;;;;;;11.20;99.90;;;;;;5075698;28;20367;-66
2021/07/06 01:11:20;;;;;;;;;;;11.30;99.90;;;;;;5075799;28;19931;-67
2021/07/06 01:13:46;;;;;;;;;;;11.50;99.90;;;;;;5075756;28;19908;-67
2021/07/06 01:16:13;;;;;;;;;;;11.80;99.90;;;;;;5075646;28;19920;-66
2021/07/06 01:18:40;;;;;;;;;;;11.90;99.90;;;;;;5075571;28;19962;-67
2021/07/06 01:21:06;;;;;;;;;;;12.10;99.90;;;;;;5075452;28;19909;-67
2021/07/06 01:23:34;;;;;;;;;;;12.30;99.90;;;;;;5075272;28;19999;-66
2021/07/06 01:26:03;;;;;;;;;;;12.60;99.80;;;;;;5075228;28;20275;-66
2021/07/06 01:28:30;;;;;;;;;;;12.50;99.70;;;;;;5075308;28;20023;-66
2021/07/06 01:30:56;;;;;;;;;;;12.30;99.60;;;;;;5075262;28;19932;-66
2021/07/06 01:33:24;;;;;;;;;;;12.20;99.90;;;;;;5073893;28;19908;-67
2021/07/06 01:35:52;;;;;;;;;;;12.10;99.90;;;;;;5075270;28;20003;-66
2021/07/06 01:38:19;;;;;;;;;;;12.00;99.90;;;;;;5075203;28;20286;-66
2021/07/06 01:40:46;;;;;;;;;;;12.00;99.90;;;;;;5073603;28;20471;-66
2021/07/06 01:43:12;;;;;;;;;;;12.00;99.90;;;;;;5075083;28;19931;-66
2021/07/06 01:45:39;;;;;;;;;;;12.00;99.90;;;;;;5074886;28;20278;-66
2021/07/06 01:48:06;;;;;;;;;;;12.00;99.90;;;;;;5074679;28;20418;-67
2021/07/06 01:50:34;;;;;;;;;;;12.00;99.90;;;;;;5074671;28;19915;-66
2021/07/06 01:53:03;;;;;;;;;;;11.90;99.90;;;;;;5075020;28;20382;-67
2021/07/06 01:55:31;;;;;;;;;;;11.90;99.90;;;;;;5074055;28;20414;-66
2021/07/06 01:57:59;;;;;;;;;;;11.90;99.90;;;;;;5074984;28;19915;-66
2021/07/06 02:00:28;;;;;;;;;;;11.90;99.90;;;;;;5074923;28;19916;-65
2021/07/06 02:02:56;;;;;;;;;;;11.90;99.90;;;;;;5074263;28;19912;-66
2021/07/06 02:05:22;;;;;;;;;;;12.00;99.90;;;;;;5074862;28;19916;-66
2021/07/06 02:07:49;;;;;;;;;;;12.10;99.90;;;;;;5074254;28;19974;-65
2021/07/06 02:10:16;;;;;;;;;;;12.10;99.90;;;;;;5074792;28;19944;-66
2021/07/06 02:12:44;;;;;;;;;;;12.10;99.90;;;;;;5074862;28;19982;-65
2021/07/06 02:15:11;;;;;;;;;;;12.10;99.90;;;;;;5074288;28;19920;-66
2021/07/06 02:17:38;;;;;;;;;;;12.10;99.90;;;;;;5074214;28;20309;-65
2021/07/06 02:20:07;;;;;;;;;;;12.10;99.90;;;;;;5073195;28;20286;-66
2021/07/06 02:22:34;;;;;;;;;;;12.20;99.90;;;;;;5074485;28;19909;-65
2021/07/06 02:25:01;;;;;;;;;;;12.10;99.90;;;;;;5074289;28;19909;-65
2021/07/06 02:27:28;;;;;;;;;;;12.20;99.90;;;;;;5074190;28;20428;-66
2021/07/06 02:29:54;;;;;;;;;;;12.30;99.90;;;;;;5074104;28;19912;-66
2021/07/06 02:32:21;;;;;;;;;;;12.40;99.90;;;;;;5074439;28;19935;-67
2021/07/06 02:34:48;;;;;;;;;;;12.30;99.90;;;;;;5074264;28;19908;-67
2021/07/06 02:37:14;;;;;;;;;;;12.40;99.90;;;;;;5074187;28;19909;-66
2021/07/06 02:39:41;;;;;;;;;;;12.30;99.90;;;;;;5073842;28;19975;-67
2021/07/06 02:42:08;;;;;;;;;;;12.40;99.90;;;;;;5074070;28;20232;-67
2021/07/06 02:44:35;;;;;;;;;;;12.50;99.90;;;;;;5074103;28;20003;-66
2021/07/06 02:47:01;;;;;;;;;;;12.50;99.90;;;;;;5073940;28;19995;-67
2021/07/06 02:49:28;;;;;;;;;;;12.50;99.90;;;;;;5073837;28;20001;-67
2021/07/06 02:51:54;;;;;;;;;;;12.50;99.90;;;;;;5073558;28;19913;-67
2021/07/06 02:54:21;;;;;;;;;;;12.50;99.90;;;;;;5070262;28;19908;-66
2021/07/06 02:56:48;;;;;;;;;;;12.60;99.90;;;;;;5073517;28;19912;-66
2021/07/06 02:59:14;;;;;;;;;;;12.50;99.90;;;;;;5074135;28;19943;-66
2021/07/06 03:01:41;;;;;;;;;;;12.50;99.90;;;;;;5073921;28;19908;-67
2021/07/06 03:04:08;;;;;;;;;;;12.50;99.90;;;;;;5073532;28;20325;-67
2021/07/06 03:06:34;;;;;;;;;;;12.50;99.90;;;;;;5072960;28;19908;-67
2021/07/06 03:09:01;;;;;;;;;;;12.50;99.90;;;;;;5073591;28;20007;-67
2021/07/06 03:11:28;;;;;;;;;;;12.40;99.90;;;;;;5073685;28;19927;-66
2021/07/06 03:13:54;;;;;;;;;;;12.40;99.90;;;;;;5073386;28;19908;-67
2021/07/06 03:16:21;;;;;;;;;;;12.50;99.90;;;;;;5072509;28;19924;-67
2021/07/06 03:18:48;;;;;;;;;;;12.60;99.90;;;;;;5071851;28;19912;-66
2021/07/06 03:21:15;;;;;;;;;;;12.70;99.90;;;;;;5073229;28;20287;-67
2021/07/06 03:23:41;;;;;;;;;;;12.70;99.90;;;;;;5072897;28;19909;-66
2021/07/06 03:26:08;;;;;;;;;;;12.80;99.90;;;;;;5073232;28;19918;-67
2021/07/06 03:28:35;;;;;;;;;;;12.90;99.90;;;;;;5073047;28;19921;-67
2021/07/06 03:31:02;;;;;;;;;;;12.90;99.90;;;;;;5071796;28;20007;-66
2021/07/06 03:33:31;;;;;;;;;;;13.00;99.90;;;;;;5068405;28;20314;-66
2021/07/06 03:35:58;;;;;;;;;;;12.90;99.90;;;;;;5072491;28;19939;-66
2021/07/06 03:38:25;;;;;;;;;;;12.80;99.90;;;;;;5072755;28;19967;-66
2021/07/06 03:40:51;;;;;;;;;;;13.10;99.90;;;;;;5072826;28;19908;-67
2021/07/06 03:43:18;;;;;;;;;;;13.10;99.90;;;;;;5072845;28;20363;-66
2021/07/06 03:45:45;;;;;;;;;;;13.10;99.90;;;;;;5071388;28;19938;-66
2021/07/06 03:48:11;;;;;;;;;;;13.20;99.90;;;;;;5072084;28;19917;-67
2021/07/06 03:50:38;;;;;;;;;;;13.30;99.90;;;;;;5072701;28;19913;-66
2021/07/06 03:53:06;;;;;;;;;;;13.40;99.90;;;;;;5072407;28;19908;-67
2021/07/06 03:55:33;;;;;;;;;;;13.40;99.90;;;;;;5072575;28;19908;-66
2021/07/06 03:58:00;;;;;;;;;;;13.30;99.90;;;;;;5072607;28;19914;-66
2021/07/06 04:00:28;;;;;;;;;;;13.20;99.90;;;;;;5071608;28;19913;-67
2021/07/06 04:02:55;;;;;;;;;;;13.20;99.90;;;;;;5072593;28;19995;-67
2021/07/06 04:05:23;;;;;;;;;;;13.20;99.90;;;;;;5072363;28;19934;-66
2021/07/06 04:07:50;;;;;;;;;;;13.20;99.90;;;;;;5071788;28;19971;-66
2021/07/06 04:10:17;;;;;;;;;;;13.20;99.90;;;;;;5072587;28;20502;-67
2021/07/06 04:12:45;;;;;;;;;;;13.20;99.90;;;;;;5072411;28;19958;-67
2021/07/06 04:15:12;;;;;;;;;;;13.30;99.90;;;;;;5070195;28;19916;-66
2021/07/06 04:17:39;;;;;;;;;;;13.30;99.90;;;;;;5071989;28;19927;-66
2021/07/06 04:20:07;;;;;;;;;;;13.20;99.60;;;;;;5072360;28;19909;-68
2021/07/06 04:22:35;;;;;;;;;;;13.30;99.50;;;;;;5071410;28;19909;-67
2021/07/06 04:25:02;;;;;;;;;;;13.30;99.60;;;;;;5071495;28;19909;-66
2021/07/06 04:27:28;;;;;;;;;;;13.30;99.90;;;;;;5072200;28;19916;-66
2021/07/06 04:29:55;;;;;;;;;;;13.30;99.90;;;;;;5072226;28;20374;-67
2021/07/06 04:32:22;;;;;;;;;;;13.30;99.90;;;;;;5071274;28;19912;-69
2021/07/06 04:34:51;;;;;;;;;;;13.40;99.90;;;;;;5069457;28;20014;-67
2021/07/06 04:37:18;;;;;;;;;;;13.40;99.90;;;;;;5072186;28;20247;-67
2021/07/06 04:39:45;;;;;;;;;;;13.30;99.60;;;;;;5071953;28;20363;-67
2021/07/06 04:42:16;;;;;;;;;;;13.30;99.90;;;;;;5070876;28;19909;-67
2021/07/06 04:44:43;;;;;;;;;;;13.30;99.60;;;;;;5071939;28;20326;-66
2021/07/06 04:47:10;;;;;;;;;;;13.30;99.40;;;;;;5069436;28;19920;-66
2021/07/06 04:49:36;;;;;;;;;;;13.30;99.60;;;;;;5071722;28;20010;-66
2021/07/06 04:52:03;;;;;;;;;;;13.20;99.50;;;;;;5071934;28;20367;-66
2021/07/06 04:54:30;;;;;;;;;;;13.30;99.60;;;;;;5072126;28;19915;-66
2021/07/06 04:56:56;;;;;;;;;;;13.30;99.50;;;;;;5072198;28;19913;-66
2021/07/06 04:59:23;;;;;;;;;;;13.40;99.20;;;;;;5071970;28;19909;-66
2021/07/06 05:01:50;;;;;;;;;;;13.40;98.50;;;;;;5070531;28;19942;-66
2021/07/06 05:04:17;;;;;;;;;;;13.40;98.70;;;;;;5071295;28;19924;-67
2021/07/06 05:06:44;;;;;;;;;;;13.40;99.20;;;;;;5071856;28;19908;-67
2021/07/06 05:09:11;;;;;;;;;;;13.40;99.30;;;;;;5071667;28;20390;-67
2021/07/06 05:11:37;;;;;;;;;;;13.40;98.80;;;;;;5071574;28;20377;-67
2021/07/06 05:14:04;;;;;;;;;;;13.40;98.70;;;;;;5071495;28;19934;-66
2021/07/06 05:16:31;;;;;;;;;;;13.30;98.80;;;;;;5070887;28;19997;-67
2021/07/06 05:18:58;;;;;;;;;;;13.40;99.30;;;;;;5071573;28;19916;-66
2021/07/06 05:21:25;;;;;;;;;;;13.30;98.90;;;;;;5071330;28;19912;-66
2021/07/06 05:23:52;;;;;;;;;;;13.40;99.10;;;;;;5071253;28;19950;-67
2021/07/06 05:26:18;;;;;;;;;;;13.30;98.80;;;;;;5071661;28;19912;-66
2021/07/06 05:28:45;;;;;;;;;;;13.30;97.50;;;;;;5071438;28;20023;-66
2021/07/06 05:31:12;;;;;;;;;;;13.30;97.30;;;;;;5074200;28;19992;-67
2021/07/06 05:33:38;;;;;;;;;;;13.30;97.20;;;;;;5075066;28;19932;-67
2021/07/06 05:36:05;;;;;;;;;;;13.30;96.60;;;;;;5075383;28;19908;-65
2021/07/06 05:38:32;;;;;;;;;;;13.30;97.60;;;;;;5075153;28;20351;-66
2021/07/06 05:40:59;;;;;;;;;;;13.30;97.60;;;;;;5075316;28;20428;-66
2021/07/06 05:43:26;;;;;;;;;;;13.40;97.10;;;;;;5075030;28;19915;-66
2021/07/06 05:45:53;;;;;;;;;;;13.40;97.40;;;;;;5073797;28;19917;-66
2021/07/06 05:48:20;;;;;;;;;;;13.40;97.60;;;;;;5074839;28;19924;-67
2021/07/06 05:50:47;;;;;;;;;;;13.40;97.90;;;;;;5075015;28;19909;-66
2021/07/06 05:53:14;;;;;;;;;;;13.40;97.90;;;;;;5074716;28;20461;-67
2021/07/06 05:55:42;;;;;;;;;;;13.30;98.20;;;;;;5074636;28;20317;-67
2021/07/06 05:58:09;;;;;;;;;;;13.30;98.60;;;;;;5074876;28;19912;-67
2021/07/06 06:00:38;;;;;;;;;;;13.30;97.60;;;;;;5073984;28;19970;-67
2021/07/06 06:03:08;;;;;;;;;;;13.20;97.30;;;;;;5074600;28;19908;-67
2021/07/06 06:05:35;;;;;;;;;;;13.20;96.80;;;;;;5074581;28;19909;-68
2021/07/06 06:08:02;;;;;;;;;;;13.20;96.60;;;;;;5074570;28;20010;-67
2021/07/06 06:10:29;;;;;;;;;;;13.10;97.10;;;;;;5074115;28;19986;-67
2021/07/06 06:12:56;;;;;;;;;;;13.10;97.00;;;;;;5074751;28;19941;-67
2021/07/06 06:15:22;;;;;;;;;;;13.10;97.30;;;;;;5073554;28;19927;-66
2021/07/06 06:17:49;;;;;;;;;;;13.10;97.80;;;;;;5074343;28;19913;-67
2021/07/06 06:20:16;;;;;;;;;;;13.00;98.10;;;;;;5074534;28;19909;-66
2021/07/06 06:22:43;;;;;;;;;;;12.90;98.60;;;;;;5074340;28;20418;-67
2021/07/06 06:25:10;;;;;;;;;;;12.80;98.70;;;;;;5074376;28;20385;-68
2021/07/06 06:27:37;;;;;;;;;;;12.80;98.70;;;;;;5074016;28;19923;-67
2021/07/06 06:30:04;;;;;;;;;;;12.70;98.20;;;;;;5072507;28;19985;-67
2021/07/06 06:32:31;;;;;;;;;;;12.70;98.50;;;;;;5073627;28;19917;-67
2021/07/06 06:34:58;;;;;;;;;;;12.60;98.60;;;;;;5074360;28;19964;-66
2021/07/06 06:37:24;;;;;;;;;;;12.60;98.80;;;;;;5074217;28;19931;-66
2021/07/06 06:39:51;;;;;;;;;;;12.60;99.30;;;;;;5073748;28;19912;-66
2021/07/06 06:42:18;;;;;;;;;;;12.50;99.80;;;;;;5073921;28;19913;-65
2021/07/06 06:44:44;;;;;;;;;;;12.40;99.90;;;;;;5073110;28;20011;-65
2021/07/06 06:47:11;;;;;;;;;;;12.40;99.90;;;;;;5073886;28;20015;-65
2021/07/06 06:49:38;;;;;;;;;;;12.30;99.90;;;;;;5072375;28;19909;-65
2021/07/06 06:52:05;;;;;;;;;;;12.20;99.90;;;;;;5073653;28;19969;-66
2021/07/06 06:54:33;;;;;;;;;;;12.20;99.90;;;;;;5073592;28;19954;-67
2021/07/06 06:57:01;;;;;;;;;;;12.10;99.90;;;;;;5073966;28;19908;-66
2021/07/06 06:59:28;;;;;;;;;;;12.10;99.90;;;;;;5072803;28;20370;-67
2021/07/06 07:02:40;;;;;;;;;;;12.00;99.90;;;;;;5073546;28;20348;-66
2021/07/06 07:04:41;;;;;;;;;;;12.00;99.90;;;;;;5062701;28;19948;-67
2021/07/06 07:07:08;;;;;;;;;;;11.90;99.90;;;;;;5073257;28;19916;-67
2021/07/06 07:09:35;;;;;;;;;;;11.90;99.90;;;;;;5073122;28;20367;-65
2021/07/06 07:12:01;;;;;;;;;;;11.90;99.90;;;;;;5073255;28;19908;-66
2021/07/06 07:14:28;;;;;;;;;;;11.80;99.90;;;;;;5072285;28;19991;-65
2021/07/06 07:16:55;;;;;;;;;;;11.90;99.90;;;;;;5073292;28;20373;-66
2021/07/06 07:19:21;;;;;;;;;;;11.80;99.90;;;;;;5072107;28;19908;-65
2021/07/06 07:21:48;;;;;;;;;;;11.80;99.90;;;;;;5073015;28;19914;-65
2021/07/06 07:24:18;;;;;;;;;;;11.80;99.90;;;;;;5072491;28;20143;-65
2021/07/06 07:26:44;;;;;;;;;;;11.70;99.90;;;;;;5073080;28;19915;-65
2021/07/06 07:29:11;;;;;;;;;;;11.70;99.90;;;;;;5072058;28;19916;-66
2021/07/06 07:31:38;;;;;;;;;;;11.70;99.90;;;;;;5072933;28;19991;-65
2021/07/06 07:34:07;;;;;;;;;;;11.60;99.90;;;;;;5072886;28;20592;-66
2021/07/06 07:36:34;;;;;;;;;;;11.60;99.90;;;;;;5073164;28;19916;-64
2021/07/06 07:39:01;;;;;;;;;;;11.60;99.90;;;;;;5072842;28;19996;-67
2021/07/06 07:41:29;;;;;;;;;;;11.60;99.90;;;;;;5069131;28;20653;-65
2021/07/06 07:43:56;;;;;;;;;;;11.60;99.90;;;;;;5070145;28;19912;-65
2021/07/06 07:46:23;;;;;;;;;;;11.50;99.90;;;;;;5070788;28;19965;-65
2021/07/06 07:48:50;;;;;;;;;;;11.60;99.90;;;;;;5070659;28;19981;-67
2021/07/06 07:51:16;;;;;;;;;;;11.50;99.90;;;;;;5067552;28;19913;-65
2021/07/06 07:53:43;;;;;;;;;;;11.40;99.90;;;;;;5069614;28;20359;-67
2021/07/06 07:56:11;;;;;;;;;;;11.50;99.90;;;;;;5070763;28;19913;-66
2021/07/06 07:58:37;;;;;;;;;;;11.40;99.90;;;;;;5069529;28;19963;-65
2021/07/06 08:01:04;;;;;;;;;;;11.50;99.90;;;;;;5070244;28;19909;-67
2021/07/06 08:03:32;;;;;;;;;;;11.40;99.90;;;;;;5070395;28;19908;-66
2021/07/06 08:06:02;;;;;;;;;;;11.30;99.90;;;;;;5069749;28;19916;-66
2021/07/06 08:08:29;;;;;;;;;;;11.30;99.90;;;;;;5070379;28;19928;-66
2021/07/06 08:10:58;;;;;;;;;;;11.30;99.90;;;;;;5070510;28;19916;-66
2021/07/06 08:13:25;;;;;;;;;;;11.30;99.90;;;;;;5069230;28;20006;-65
2021/07/06 08:15:52;;;;;;;;;;;11.30;99.90;;;;;;5070134;28;19934;-66
2021/07/06 08:18:19;;;;;;;;;;;11.30;99.90;;;;;;5070317;28;19916;-67
2021/07/06 08:20:47;;;;;;;;;;;11.30;99.90;;;;;;5069749;28;20003;-65
2021/07/06 08:23:13;;;;;;;;;;;11.30;99.90;;;;;;5070110;28;20381;-65
2021/07/06 08:25:40;;;;;;;;;;;11.40;99.90;;;;;;5069938;28;19915;-66
2021/07/06 08:28:07;;;;;;;;;;;11.40;99.90;;;;;;5069100;28;19916;-66
2021/07/06 08:30:33;;;;;;;;;;;11.50;99.90;;;;;;5070571;28;19920;-65
2021/07/06 08:33:00;;;;;;;;;;;11.50;99.90;;;;;;5069890;28;19970;-66
2021/07/06 08:35:27;;;;;;;;;;;11.40;99.90;;;;;;5069942;28;19918;-66
2021/07/06 08:37:54;;;;;;;;;;;11.40;99.90;;;;;;5069890;28;19913;-65
2021/07/06 08:40:20;;;;;;;;;;;11.50;99.90;;;;;;5070098;28;20307;-66
2021/07/06 08:42:48;;;;;;;;;;;11.40;99.90;;;;;;5069163;28;19918;-65
2021/07/06 08:45:15;;;;;;;;;;;11.40;99.90;;;;;;5069852;28;19939;-66
2021/07/06 08:47:44;;;;;;;;;;;11.50;99.90;;;;;;5069506;28;19955;-66
2021/07/06 08:50:11;;;;;;;;;;;11.50;99.90;;;;;;5070180;28;19919;-66
2021/07/06 08:52:41;;;;;;;;;;;11.60;99.90;;;;;;5070017;28;19997;-67
2021/07/06 08:55:10;;;;;;;;;;;11.70;99.90;;;;;;5070068;28;19916;-65
2021/07/06 08:57:44;;;;;;;;;;;11.60;99.90;;;;;;5069341;28;19909;-66
2021/07/06 09:00:12;;;;;;;;;;;11.60;99.90;;;;;;5069799;28;20008;-67
2021/07/06 09:02:39;;;;;;;;;;;11.60;99.90;;;;;;5070122;28;19964;-67
2021/07/06 09:05:18;;;;;;;;;;;11.50;99.90;;;;;;5071920;28;19909;-67
2021/07/06 09:07:44;;;;;;;;;;;11.50;99.90;;;;;;5075396;28;20390;-66
2021/07/06 09:10:19;;;;;;;;;;;11.50;99.90;;;;;;5076101;28;19912;-67
2021/07/06 09:12:46;;;;;;;;;;;11.50;99.90;;;;;;5074878;28;19909;-66
2021/07/06 09:15:23;;;;;;;;;;;11.40;99.90;;;;;;5075743;28;19924;-67
2021/07/06 09:18:06;;;;;;;;;;;11.40;99.90;;;;;;5075619;28;20325;-66
2021/07/06 09:20:33;;;;;;;;;;;11.40;99.90;;;;;;5063494;28;19909;-68
2021/07/06 09:23:18;;;;;;;;;;;11.40;99.90;;;;;;5055462;28;20363;-67
2021/07/06 09:26:03;;;;;;;;;;;11.40;99.90;;;;;;5055501;28;19916;-66
2021/07/06 09:28:31;;;;;;;;;;;11.50;99.90;;;;;;5069230;28;20294;-66
2021/07/06 09:31:01;;;;;;;;;;;11.50;99.90;;;;;;5075278;28;19916;-67
2021/07/06 09:33:28;;;;;;;;;;;11.60;99.90;;;;;;5075445;28;20003;-67
2021/07/06 09:35:55;;;;;;;;;;;11.70;99.90;;;;;;5074541;28;19908;-67
2021/07/06 09:38:22;;;;;;;;;;;11.60;99.90;;;;;;5075219;28;19975;-66
2021/07/06 09:40:50;;;;;;;;;;;11.60;99.90;;;;;;5075225;28;19935;-66
2021/07/06 09:43:21;;;;;;;;;;;11.70;99.90;;;;;;5074436;28;19963;-66
2021/07/06 09:45:58;;;;;;;;;;;11.80;99.90;;;;;;5075374;28;19919;-66
2021/07/06 09:48:25;;;;;;;;;;;11.80;99.90;;;;;;5074975;28;19917;-66
2021/07/06 09:50:52;;;;;;;;;;;11.80;99.90;;;;;;5073167;28;19908;-66
2021/07/06 09:53:26;;;;;;;;;;;11.70;99.90;;;;;;5075327;28;19912;-66
2021/07/06 09:55:53;;;;;;;;;;;11.70;99.90;;;;;;5074681;28;19908;-67
2021/07/06 09:58:19;;;;;;;;;;;11.70;99.90;;;;;;5074097;28;20422;-67
2021/07/06 10:00:46;;;;;;;;;;;11.60;99.90;;;;;;5075031;28;19935;-67
2021/07/06 10:03:13;;;;;;;;;;;11.60;99.90;;;;;;5074954;28;19943;-67
2021/07/06 10:05:39;;;;;;;;;;;11.60;99.90;;;;;;5074101;28;19916;-67
2021/07/06 10:08:06;;;;;;;;;;;11.60;99.90;;;;;;5074510;28;19923;-67
2021/07/06 10:10:33;;;;;;;;;;;11.60;99.90;;;;;;5074673;28;19982;-67
2021/07/06 10:13:00;;;;;;;;;;;11.50;99.90;;;;;;5073521;28;20046;-67
2021/07/06 10:15:27;;;;;;;;;;;11.50;99.90;;;;;;5074209;28;19959;-66
2021/07/06 10:17:54;;;;;;;;;;;11.40;99.90;;;;;;5073468;28;19908;-66
2021/07/06 10:20:25;;;;;;;;;;;11.40;99.90;;;;;;5074977;28;19909;-67
2021/07/06 10:22:58;;;;;;;;;;;11.40;99.90;;;;;;5075089;28;19913;-67
2021/07/06 10:25:26;;;;;;;;;;;11.40;99.90;;;;;;5074907;28;19909;-67
2021/07/06 10:27:55;;;;;;;;;;;11.40;99.90;;;;;;5074435;28;19927;-67
2021/07/06 10:30:23;;;;;;;;;;;11.40;99.90;;;;;;5073759;28;19916;-67
2021/07/06 10:32:54;;;;;;;;;;;11.40;99.90;;;;;;5074567;28;19912;-67
2021/07/06 10:35:50;;;;;;;;;;;11.30;99.90;;;;;;5074055;28;19914;-67
2021/07/06 10:38:29;;;;;;;;;;;11.30;99.90;;;;;;5057259;28;20282;-66
2021/07/06 10:40:56;;;;;;;;;;;11.20;99.90;;;;;;5073451;28;20001;-67
2021/07/06 10:43:40;;;;;;;;;;;11.20;99.90;;;;;;5074166;28;19908;-67
2021/07/06 10:46:25;;;;;;;;;;;11.20;99.90;;;;;;5074221;28;19939;-67
2021/07/06 10:49:10;;;;;;;;;;;11.20;99.90;;;;;;5073480;28;20386;-67
2021/07/06 10:51:43;;;;;;;;;;;11.20;99.90;;;;;;5073841;28;19908;-67
2021/07/06 10:54:16;;;;;;;;;;;11.20;99.90;;;;;;5072694;28;19917;-67
2021/07/06 10:56:46;;;;;;;;;;;11.20;99.90;;;;;;5073967;28;19916;-66
2021/07/06 10:59:25;;;;;;;;;;;11.20;99.90;;;;;;5073663;28;19915;-67
2021/07/06 11:01:53;;;;;;;;;;;11.20;99.90;;;;;;5073523;28;19947;-66
2021/07/06 11:04:52;;;;;;;;;;;11.20;99.90;;;;;;5073134;28;19947;-66
2021/07/06 11:07:31;;;;;;;;;;;11.20;99.90;;;;;;5027180;28;20430;-67
2021/07/06 11:09:57;;;;;;;;;;;11.10;99.90;;;;;;5073620;28;19992;-67
2021/07/06 11:12:36;;;;;;;;;;;11.20;99.90;;;;;;5073649;28;20444;-68
2021/07/06 11:15:30;;;;;;;;;;;11.20;99.90;;;;;;5073545;28;19973;-68
2021/07/06 11:18:01;;;;;;;;;;;11.10;99.90;;;;;;5070799;28;20313;-68
2021/07/06 11:20:32;;;;;;;;;;;11.20;99.90;;;;;;5072380;28;20007;-67
2021/07/06 11:22:59;;;;;;;;;;;11.20;99.90;;;;;;5073384;28;20327;-68
2021/07/06 11:25:27;;;;;;;;;;;11.10;99.90;;;;;;5073228;28;20282;-68
2021/07/06 11:28:00;;;;;;;;;;;11.10;99.90;;;;;;5072166;28;19975;-69
2021/07/06 11:30:30;;;;;;;;;;;11.10;99.90;;;;;;5073180;28;20714;-67
2021/07/06 11:33:06;;;;;;;;;;;11.10;99.90;;;;;;5073059;28;19917;-67
2021/07/06 11:35:33;;;;;;;;;;;11.10;99.90;;;;;;5071994;28;20378;-68
2021/07/06 11:38:03;;;;;;;;;;;11.10;99.90;;;;;;5073107;28;19909;-68
2021/07/06 11:40:30;;;;;;;;;;;11.10;99.90;;;;;;5073012;28;20311;-67
2021/07/06 11:42:56;;;;;;;;;;;11.10;99.90;;;;;;5072917;28;19909;-68
2021/07/06 11:45:23;;;;;;;;;;;11.10;99.90;;;;;;5073097;28;20295;-68
2021/07/06 11:48:02;;;;;;;;;;;11.10;99.90;;;;;;5072501;28;20434;-68
2021/07/06 11:50:30;;;;;;;;;;;11.10;99.90;;;;;;5071737;28;19913;-67
2021/07/06 11:52:57;;;;;;;;;;;11.10;99.90;;;;;;5072679;28;19909;-67
2021/07/06 11:55:25;;;;;;;;;;;11.00;99.90;;;;;;5070857;28;19912;-67
2021/07/06 11:57:53;;;;;;;;;;;11.00;99.90;;;;;;5072380;28;20282;-68
2021/07/06 12:00:21;;;;;;;;;;;10.90;99.90;;;;;;5072732;28;19935;-68
2021/07/06 12:02:47;;;;;;;;;;;10.80;99.90;;;;;;5072710;28;19909;-66
2021/07/06 12:05:15;;;;;;;;;;;10.70;99.90;;;;;;5071620;28;20359;-67
2021/07/06 12:07:42;;;;;;;;;;;10.60;99.90;;;;;;5072524;28;19912;-66
2021/07/06 12:10:09;;;;;;;;;;;10.50;99.90;;;;;;5072838;28;20074;-66
2021/07/06 12:12:39;;;;;;;;;;;10.40;99.90;;;;;;5072369;28;19908;-66
2021/07/06 12:15:06;;;;;;;;;;;10.30;99.90;;;;;;5072246;28;19928;-66
2021/07/06 12:17:34;;;;;;;;;;;10.20;99.90;;;;;;5072141;28;20319;-67
2021/07/06 12:20:02;;;;;;;;;;;10.10;99.90;;;;;;5071585;28;19966;-67
2021/07/06 12:22:29;;;;;;;;;;;10.00;99.90;;;;;;5072178;28;20382;-66
2021/07/06 12:24:56;;;;;;;;;;;10.00;99.90;;;;;;5072336;28;19915;-67
2021/07/06 12:27:23;;;;;;;;;;;9.90;99.90;;;;;;5069511;28;20015;-67
2021/07/06 12:29:55;;;;;;;;;;;9.80;99.90;;;;;;5071362;28;19978;-66
2021/07/06 12:32:21;;;;;;;;;;;9.80;99.90;;;;;;5072119;28;19915;-67
2021/07/06 12:34:57;;;;;;;;;;;9.80;99.90;;;;;;5071574;28;19966;-66
2021/07/06 12:37:25;;;;;;;;;;;9.80;99.90;;;;;;5072133;28;19932;-67
2021/07/06 12:39:53;;;;;;;;;;;9.70;99.90;;;;;;5071800;28;20342;-66
2021/07/06 12:42:23;;;;;;;;;;;9.70;99.90;;;;;;5072129;28;19909;-66
2021/07/06 12:44:50;;;;;;;;;;;9.70;99.90;;;;;;5072336;28;19908;-66
2021/07/06 12:47:34;;;;;;;;;;;9.80;99.90;;;;;;5070257;28;20140;-66
2021/07/06 12:50:03;;;;;;;;;;;9.80;99.90;;;;;;5071872;28;20401;-66
2021/07/06 12:52:38;;;;;;;;;;;9.70;99.90;;;;;;5071918;28;19916;-66
2021/07/06 12:55:10;;;;;;;;;;;9.60;99.90;;;;;;5071870;28;20041;-67
2021/07/06 12:57:38;;;;;;;;;;;9.60;99.90;;;;;;5071659;28;19908;-67
2021/07/06 13:00:16;;;;;;;;;;;9.60;99.90;;;;;;5072005;28;20023;-67
2021/07/06 13:02:46;;;;;;;;;;;9.60;99.90;;;;;;5070850;28;19973;-66
2021/07/06 13:05:23;;;;;;;;;;;9.60;99.90;;;;;;5070975;28;20025;-66
2021/07/06 13:07:50;;;;;;;;;;;9.60;99.90;;;;;;5071757;28;19916;-67
2021/07/06 13:10:21;;;;;;;;;;;9.60;99.90;;;;;;5071881;28;19988;-67
2021/07/06 13:12:57;;;;;;;;;;;9.50;99.90;;;;;;5072079;28;20370;-67
2021/07/06 13:15:28;;;;;;;;;;;9.50;99.90;;;;;;5071817;28;20310;-66
2021/07/06 13:17:55;;;;;;;;;;;9.40;99.90;;;;;;5069489;28;19917;-66
2021/07/06 13:20:22;;;;;;;;;;;9.50;99.90;;;;;;5051959;28;20390;-67
2021/07/06 13:22:49;;;;;;;;;;;9.40;99.90;;;;;;5051235;28;19924;-66
2021/07/06 13:25:16;;;;;;;;;;;9.40;99.90;;;;;;5051698;28;20375;-66
2021/07/06 13:27:43;;;;;;;;;;;9.30;99.90;;;;;;5051550;28;19921;-67
2021/07/06 13:30:11;;;;;;;;;;;9.30;99.90;;;;;;5051516;28;19909;-66
2021/07/06 13:32:39;;;;;;;;;;;9.30;99.90;;;;;;5063934;28;19913;-66
2021/07/06 13:35:06;;;;;;;;;;;9.30;99.90;;;;;;5071478;28;19913;-66
2021/07/06 13:37:33;;;;;;;;;;;9.20;99.90;;;;;;5071131;28;19909;-66
2021/07/06 13:39:59;;;;;;;;;;;9.20;99.90;;;;;;5071893;28;19919;-65
2021/07/06 13:42:26;;;;;;;;;;;9.20;99.90;;;;;;5071759;28;19909;-66
2021/07/06 13:44:53;;;;;;;;;;;9.20;99.90;;;;;;5070213;28;20015;-65
2021/07/06 13:47:19;;;;;;;;;;;9.10;99.90;;;;;;5070262;28;19956;-67
2021/07/06 13:49:46;;;;;;;;;;;9.10;99.90;;;;;;5070455;28;20375;-67
2021/07/06 13:52:13;;;;;;;;;;;9.10;99.90;;;;;;5074849;28;19951;-67
2021/07/06 13:54:40;;;;;;;;;;;9.10;99.90;;;;;;5075085;28;19919;-66
2021/07/06 13:57:09;;;;;;;;;;;9.10;99.90;;;;;;5074886;28;19999;-67
2021/07/06 13:59:36;;;;;;;;;;;9.10;99.90;;;;;;5074674;28;19908;-66
2021/07/06 14:02:03;;;;;;;;;;;9.10;99.90;;;;;;5074186;28;19965;-67
2021/07/06 14:04:30;;;;;;;;;;;9.00;99.90;;;;;;5074091;28;19932;-67
2021/07/06 14:06:59;;;;;;;;;;;9.00;99.90;;;;;;5074658;28;19916;-66
2021/07/06 14:09:26;;;;;;;;;;;8.90;99.90;;;;;;5074759;28;20419;-66
2021/07/06 14:11:53;;;;;;;;;;;8.90;99.90;;;;;;5074354;28;19913;-67
2021/07/06 14:14:19;;;;;;;;;;;8.80;99.90;;;;;;5074539;28;20319;-66
2021/07/06 14:16:46;;;;;;;;;;;8.80;99.90;;;;;;5073814;28;19913;-67
2021/07/06 14:19:13;;;;;;;;;;;8.80;99.90;;;;;;5074615;28;19909;-67
2021/07/06 14:21:39;;;;;;;;;;;8.80;99.90;;;;;;5074201;28;19912;-67
2021/07/06 14:24:06;;;;;;;;;;;8.70;99.90;;;;;;5074541;28;19930;-67